sensor_id;sensor_type;location;lat;lon;timestamp;P1;durP1;ratioP1;P2;durP2;ratioP2
53718;SDS011;39616;48.872;9.390;2022-07-29T00:02:24;7.10;;;4.15;;
53718;SDS011;39616;48.872;9.390;2022-07-29T00:04:55;5.97;;;3.55;;
53718;SDS011;39616;48.872;9.390;2022-07-29T00:07:26;8.57;;;4.18;;
53718;SDS011;39616;48.872;9.390;2022-07-29T00:09:56;6.22;;;3.80;;
53718;SDS011;39616;48.872;9.390;2022-07-29T00:12:27;7.30;;;3.63;;
53718;SDS011;39616;48.872;9.390;2022-07-29T00:14:57;4.10;;;3.70;;
53718;SDS011;39616;48.872;9.390;2022-07-29T00:17:27;4.18;;;3.78;;
53718;SDS011;39616;48.872;9.390;2022-07-29T00:19:58;5.15;;;3.50;;
53718;SDS011;39616;48.872;9.390;2022-07-29T00:22:28;4.45;;;3.35;;
53718;SDS011;39616;48.872;9.390;2022-07-29T00:25:01;5.65;;;3.72;;
53718;SDS011;39616;48.872;9.390;2022-07-29T00:27:31;7.68;;;3.55;;
53718;SDS011;39616;48.872;9.390;2022-07-29T00:30:02;4.75;;;3.78;;
53718;SDS011;39616;48.872;9.390;2022-07-29T00:32:34;5.47;;;4.10;;
53718;SDS011;39616;48.872;9.390;2022-07-29T00:35:04;5.65;;;3.78;;
53718;SDS011;39616;48.872;9.390;2022-07-29T00:37:54;5.47;;;3.92;;
53718;SDS011;39616;48.872;9.390;2022-07-29T00:40:24;5.45;;;4.47;;
53718;SDS011;39616;48.872;9.390;2022-07-29T00:42:54;4.10;;;3.47;;
53718;SDS011;39616;48.872;9.390;2022-07-29T00:45:25;6.60;;;3.95;;
53718;SDS011;39616;48.872;9.390;2022-07-29T00:47:56;5.90;;;4.40;;
53718;SDS011;39616;48.872;9.390;2022-07-29T00:50:26;6.05;;;4.05;;
53718;SDS011;39616;48.872;9.390;2022-07-29T00:52:57;4.60;;;3.97;;
53718;SDS011;39616;48.872;9.390;2022-07-29T00:55:28;6.97;;;4.10;;
53718;SDS011;39616;48.872;9.390;2022-07-29T00:57:58;7.15;;;4.10;;
53718;SDS011;39616;48.872;9.390;2022-07-29T01:00:29;4.72;;;3.88;;
53718;SDS011;39616;48.872;9.390;2022-07-29T01:03:00;5.18;;;4.15;;
53718;SDS011;39616;48.872;9.390;2022-07-29T01:05:31;5.55;;;4.03;;
53718;SDS011;39616;48.872;9.390;2022-07-29T01:08:02;5.13;;;3.83;;
53718;SDS011;39616;48.872;9.390;2022-07-29T01:10:32;3.97;;;3.58;;
53718;SDS011;39616;48.872;9.390;2022-07-29T01:13:07;4.72;;;4.32;;
53718;SDS011;39616;48.872;9.390;2022-07-29T01:15:43;6.38;;;4.80;;
53718;SDS011;39616;48.872;9.390;2022-07-29T01:18:21;6.22;;;4.47;;
53718;SDS011;39616;48.872;9.390;2022-07-29T01:26:42;4.97;;;4.32;;
53718;SDS011;39616;48.872;9.390;2022-07-29T01:34:48;4.82;;;4.05;;
53718;SDS011;39616;48.872;9.390;2022-07-29T01:37:39;6.40;;;4.05;;
53718;SDS011;39616;48.872;9.390;2022-07-29T01:40:25;5.80;;;4.72;;
53718;SDS011;39616;48.872;9.390;2022-07-29T01:43:03;5.03;;;4.57;;
53718;SDS011;39616;48.872;9.390;2022-07-29T01:45:40;6.82;;;5.55;;
53718;SDS011;39616;48.872;9.390;2022-07-29T01:50:49;6.25;;;4.53;;
53718;SDS011;39616;48.872;9.390;2022-07-29T01:53:26;5.22;;;4.72;;
53718;SDS011;39616;48.872;9.390;2022-07-29T01:56:02;5.30;;;4.80;;
53718;SDS011;39616;48.872;9.390;2022-07-29T01:58:34;6.82;;;5.63;;
53718;SDS011;39616;48.872;9.390;2022-07-29T02:01:09;6.95;;;4.53;;
53718;SDS011;39616;48.872;9.390;2022-07-29T02:03:43;8.05;;;5.10;;
53718;SDS011;39616;48.872;9.390;2022-07-29T02:06:15;5.40;;;4.90;;
53718;SDS011;39616;48.872;9.390;2022-07-29T02:08:49;7.82;;;5.43;;
53718;SDS011;39616;48.872;9.390;2022-07-29T02:11:22;5.18;;;4.70;;
53718;SDS011;39616;48.872;9.390;2022-07-29T02:13:53;6.93;;;5.72;;
53718;SDS011;39616;48.872;9.390;2022-07-29T02:16:26;9.45;;;6.13;;
53718;SDS011;39616;48.872;9.390;2022-07-29T02:19:00;8.82;;;5.07;;
53718;SDS011;39616;48.872;9.390;2022-07-29T02:21:32;8.40;;;5.50;;
53718;SDS011;39616;48.872;9.390;2022-07-29T02:24:05;8.95;;;6.32;;
53718;SDS011;39616;48.872;9.390;2022-07-29T02:26:37;8.73;;;5.28;;
53718;SDS011;39616;48.872;9.390;2022-07-29T02:29:10;6.85;;;5.03;;
53718;SDS011;39616;48.872;9.390;2022-07-29T02:31:42;8.35;;;6.20;;
53718;SDS011;39616;48.872;9.390;2022-07-29T02:34:17;6.78;;;5.20;;
53718;SDS011;39616;48.872;9.390;2022-07-29T02:36:49;7.70;;;5.55;;
53718;SDS011;39616;48.872;9.390;2022-07-29T02:39:20;6.80;;;5.00;;
53718;SDS011;39616;48.872;9.390;2022-07-29T02:41:58;6.00;;;4.32;;
53718;SDS011;39616;48.872;9.390;2022-07-29T02:44:33;6.10;;;4.35;;
53718;SDS011;39616;48.872;9.390;2022-07-29T02:47:10;8.52;;;4.57;;
53718;SDS011;39616;48.872;9.390;2022-07-29T02:49:52;6.47;;;5.03;;
53718;SDS011;39616;48.872;9.390;2022-07-29T02:52:31;7.10;;;5.27;;
53718;SDS011;39616;48.872;9.390;2022-07-29T02:58:39;6.22;;;4.65;;
53718;SDS011;39616;48.872;9.390;2022-07-29T03:01:13;7.78;;;5.47;;
53718;SDS011;39616;48.872;9.390;2022-07-29T03:03:46;5.30;;;4.80;;
53718;SDS011;39616;48.872;9.390;2022-07-29T03:06:19;5.72;;;5.13;;
53718;SDS011;39616;48.872;9.390;2022-07-29T03:08:52;7.05;;;5.55;;
53718;SDS011;39616;48.872;9.390;2022-07-29T03:11:24;6.07;;;5.53;;
53718;SDS011;39616;48.872;9.390;2022-07-29T03:13:55;7.78;;;5.13;;
53718;SDS011;39616;48.872;9.390;2022-07-29T03:16:27;6.28;;;5.72;;
53718;SDS011;39616;48.872;9.390;2022-07-29T03:18:58;6.28;;;5.68;;
53718;SDS011;39616;48.872;9.390;2022-07-29T03:21:31;5.57;;;5.07;;
53718;SDS011;39616;48.872;9.390;2022-07-29T03:24:01;8.15;;;5.38;;
53718;SDS011;39616;48.872;9.390;2022-07-29T03:26:31;5.53;;;4.82;;
53718;SDS011;39616;48.872;9.390;2022-07-29T03:29:02;6.95;;;5.70;;
53718;SDS011;39616;48.872;9.390;2022-07-29T03:31:32;6.32;;;5.65;;
53718;SDS011;39616;48.872;9.390;2022-07-29T03:34:06;9.85;;;5.57;;
53718;SDS011;39616;48.872;9.390;2022-07-29T03:36:36;6.22;;;5.50;;
53718;SDS011;39616;48.872;9.390;2022-07-29T03:39:07;6.07;;;5.47;;
53718;SDS011;39616;48.872;9.390;2022-07-29T03:41:39;5.70;;;5.20;;
53718;SDS011;39616;48.872;9.390;2022-07-29T03:44:12;7.38;;;4.82;;
53718;SDS011;39616;48.872;9.390;2022-07-29T03:46:46;5.10;;;4.60;;
53718;SDS011;39616;48.872;9.390;2022-07-29T03:49:20;7.65;;;5.05;;
53718;SDS011;39616;48.872;9.390;2022-07-29T03:51:52;7.15;;;5.65;;
53718;SDS011;39616;48.872;9.390;2022-07-29T03:54:22;6.85;;;5.72;;
53718;SDS011;39616;48.872;9.390;2022-07-29T03:56:53;7.25;;;5.05;;
53718;SDS011;39616;48.872;9.390;2022-07-29T03:59:25;6.05;;;5.45;;
53718;SDS011;39616;48.872;9.390;2022-07-29T04:01:56;7.35;;;5.70;;
53718;SDS011;39616;48.872;9.390;2022-07-29T04:04:27;5.93;;;5.00;;
53718;SDS011;39616;48.872;9.390;2022-07-29T04:06:58;6.65;;;5.55;;
53718;SDS011;39616;48.872;9.390;2022-07-29T04:09:28;7.30;;;5.70;;
53718;SDS011;39616;48.872;9.390;2022-07-29T04:11:59;5.68;;;4.72;;
53718;SDS011;39616;48.872;9.390;2022-07-29T04:14:31;10.32;;;5.65;;
53718;SDS011;39616;48.872;9.390;2022-07-29T04:17:02;8.95;;;5.22;;
53718;SDS011;39616;48.872;9.390;2022-07-29T04:19:33;6.82;;;4.63;;
53718;SDS011;39616;48.872;9.390;2022-07-29T04:22:04;4.93;;;4.53;;
53718;SDS011;39616;48.872;9.390;2022-07-29T04:24:34;9.40;;;4.97;;
53718;SDS011;39616;48.872;9.390;2022-07-29T04:27:04;7.93;;;5.20;;
53718;SDS011;39616;48.872;9.390;2022-07-29T04:29:35;6.85;;;4.93;;
53718;SDS011;39616;48.872;9.390;2022-07-29T04:32:05;7.30;;;5.68;;
53718;SDS011;39616;48.872;9.390;2022-07-29T04:34:36;7.65;;;4.72;;
53718;SDS011;39616;48.872;9.390;2022-07-29T04:37:06;7.70;;;4.78;;
53718;SDS011;39616;48.872;9.390;2022-07-29T04:39:36;8.50;;;5.40;;
53718;SDS011;39616;48.872;9.390;2022-07-29T04:42:07;5.88;;;4.70;;
53718;SDS011;39616;48.872;9.390;2022-07-29T04:44:37;6.57;;;5.05;;
53718;SDS011;39616;48.872;9.390;2022-07-29T04:47:07;8.68;;;5.03;;
53718;SDS011;39616;48.872;9.390;2022-07-29T04:49:38;6.85;;;5.00;;
53718;SDS011;39616;48.872;9.390;2022-07-29T04:52:09;6.15;;;4.88;;
53718;SDS011;39616;48.872;9.390;2022-07-29T04:54:39;6.25;;;5.10;;
53718;SDS011;39616;48.872;9.390;2022-07-29T04:57:09;5.85;;;4.90;;
53718;SDS011;39616;48.872;9.390;2022-07-29T04:59:40;8.13;;;5.57;;
53718;SDS011;39616;48.872;9.390;2022-07-29T05:02:10;7.80;;;5.60;;
53718;SDS011;39616;48.872;9.390;2022-07-29T05:04:40;9.00;;;6.00;;
53718;SDS011;39616;48.872;9.390;2022-07-29T05:07:11;8.38;;;5.30;;
53718;SDS011;39616;48.872;9.390;2022-07-29T05:09:41;5.97;;;5.43;;
53718;SDS011;39616;48.872;9.390;2022-07-29T05:12:11;5.78;;;4.47;;
53718;SDS011;39616;48.872;9.390;2022-07-29T05:14:42;6.10;;;4.70;;
53718;SDS011;39616;48.872;9.390;2022-07-29T05:17:12;4.72;;;4.25;;
53718;SDS011;39616;48.872;9.390;2022-07-29T05:19:43;6.18;;;4.40;;
53718;SDS011;39616;48.872;9.390;2022-07-29T05:22:13;4.35;;;3.30;;
53718;SDS011;39616;48.872;9.390;2022-07-29T05:24:46;7.20;;;4.32;;
53718;SDS011;39616;48.872;9.390;2022-07-29T05:27:16;4.10;;;3.70;;
53718;SDS011;39616;48.872;9.390;2022-07-29T05:29:46;3.55;;;3.30;;
53718;SDS011;39616;48.872;9.390;2022-07-29T05:32:17;6.70;;;3.85;;
53718;SDS011;39616;48.872;9.390;2022-07-29T05:34:47;4.07;;;3.50;;
53718;SDS011;39616;48.872;9.390;2022-07-29T05:37:20;5.40;;;3.83;;
53718;SDS011;39616;48.872;9.390;2022-07-29T05:39:51;4.45;;;3.53;;
53718;SDS011;39616;48.872;9.390;2022-07-29T05:42:21;3.95;;;3.60;;
53718;SDS011;39616;48.872;9.390;2022-07-29T05:44:52;5.22;;;3.40;;
53718;SDS011;39616;48.872;9.390;2022-07-29T05:47:23;4.32;;;3.90;;
53718;SDS011;39616;48.872;9.390;2022-07-29T05:49:53;5.40;;;3.53;;
53718;SDS011;39616;48.872;9.390;2022-07-29T05:52:24;4.10;;;3.45;;
53718;SDS011;39616;48.872;9.390;2022-07-29T05:54:54;3.83;;;3.53;;
53718;SDS011;39616;48.872;9.390;2022-07-29T05:57:25;5.18;;;2.67;;
53718;SDS011;39616;48.872;9.390;2022-07-29T05:59:55;5.30;;;2.90;;
53718;SDS011;39616;48.872;9.390;2022-07-29T06:02:26;2.97;;;2.72;;
53718;SDS011;39616;48.872;9.390;2022-07-29T06:04:56;4.30;;;3.05;;
53718;SDS011;39616;48.872;9.390;2022-07-29T06:07:26;4.20;;;2.83;;
53718;SDS011;39616;48.872;9.390;2022-07-29T06:09:57;3.25;;;2.95;;
53718;SDS011;39616;48.872;9.390;2022-07-29T06:12:27;4.18;;;3.03;;
53718;SDS011;39616;48.872;9.390;2022-07-29T06:14:57;2.65;;;2.45;;
53718;SDS011;39616;48.872;9.390;2022-07-29T06:17:28;4.07;;;3.25;;
53718;SDS011;39616;48.872;9.390;2022-07-29T06:19:58;3.33;;;2.60;;
53718;SDS011;39616;48.872;9.390;2022-07-29T06:22:28;2.67;;;2.47;;
53718;SDS011;39616;48.872;9.390;2022-07-29T06:24:59;3.58;;;2.40;;
53718;SDS011;39616;48.872;9.390;2022-07-29T06:27:31;6.00;;;2.58;;
53718;SDS011;39616;48.872;9.390;2022-07-29T06:30:02;2.35;;;2.15;;
53718;SDS011;39616;48.872;9.390;2022-07-29T06:32:33;3.10;;;2.15;;
53718;SDS011;39616;48.872;9.390;2022-07-29T06:35:05;3.63;;;2.17;;
53718;SDS011;39616;48.872;9.390;2022-07-29T06:37:36;2.17;;;1.90;;
53718;SDS011;39616;48.872;9.390;2022-07-29T06:40:06;3.67;;;2.25;;
53718;SDS011;39616;48.872;9.390;2022-07-29T06:42:56;3.80;;;2.00;;
53718;SDS011;39616;48.872;9.390;2022-07-29T06:45:26;2.00;;;1.80;;
53718;SDS011;39616;48.872;9.390;2022-07-29T06:47:56;5.30;;;2.17;;
53718;SDS011;39616;48.872;9.390;2022-07-29T06:50:27;3.97;;;1.50;;
53718;SDS011;39616;48.872;9.390;2022-07-29T06:52:57;1.63;;;1.52;;
53718;SDS011;39616;48.872;9.390;2022-07-29T06:55:27;2.00;;;1.35;;
53718;SDS011;39616;48.872;9.390;2022-07-29T06:57:58;1.50;;;1.40;;
53718;SDS011;39616;48.872;9.390;2022-07-29T07:00:28;2.92;;;1.63;;
53718;SDS011;39616;48.872;9.390;2022-07-29T07:02:58;1.70;;;1.60;;
53718;SDS011;39616;48.872;9.390;2022-07-29T07:05:28;1.90;;;1.60;;
53718;SDS011;39616;48.872;9.390;2022-07-29T07:07:59;2.60;;;1.50;;
53718;SDS011;39616;48.872;9.390;2022-07-29T07:10:29;3.97;;;1.60;;
53718;SDS011;39616;48.872;9.390;2022-07-29T07:13:00;1.80;;;1.70;;
53718;SDS011;39616;48.872;9.390;2022-07-29T07:15:33;2.28;;;1.30;;
53718;SDS011;39616;48.872;9.390;2022-07-29T07:18:05;2.53;;;1.88;;
53718;SDS011;39616;48.872;9.390;2022-07-29T07:20:37;2.20;;;1.80;;
53718;SDS011;39616;48.872;9.390;2022-07-29T07:23:07;2.63;;;1.50;;
53718;SDS011;39616;48.872;9.390;2022-07-29T07:25:37;4.05;;;1.60;;
53718;SDS011;39616;48.872;9.390;2022-07-29T07:28:08;3.55;;;1.30;;
53718;SDS011;39616;48.872;9.390;2022-07-29T07:30:39;2.20;;;1.50;;
53718;SDS011;39616;48.872;9.390;2022-07-29T07:33:09;1.48;;;1.38;;
53718;SDS011;39616;48.872;9.390;2022-07-29T07:35:40;1.38;;;1.27;;
53718;SDS011;39616;48.872;9.390;2022-07-29T07:38:11;2.05;;;1.50;;
53718;SDS011;39616;48.872;9.390;2022-07-29T07:40:41;3.22;;;1.38;;
53718;SDS011;39616;48.872;9.390;2022-07-29T07:43:12;2.40;;;1.20;;
53718;SDS011;39616;48.872;9.390;2022-07-29T07:45:42;4.57;;;1.58;;
53718;SDS011;39616;48.872;9.390;2022-07-29T07:48:12;2.47;;;1.27;;
53718;SDS011;39616;48.872;9.390;2022-07-29T07:50:43;3.88;;;1.60;;
53718;SDS011;39616;48.872;9.390;2022-07-29T07:53:14;2.33;;;1.20;;
53718;SDS011;39616;48.872;9.390;2022-07-29T07:55:44;2.17;;;1.70;;
53718;SDS011;39616;48.872;9.390;2022-07-29T07:58:14;3.00;;;1.45;;
53718;SDS011;39616;48.872;9.390;2022-07-29T08:00:45;1.60;;;1.50;;
53718;SDS011;39616;48.872;9.390;2022-07-29T08:03:15;3.05;;;1.60;;
53718;SDS011;39616;48.872;9.390;2022-07-29T08:05:46;2.58;;;1.80;;
53718;SDS011;39616;48.872;9.390;2022-07-29T08:08:17;2.20;;;1.63;;
53718;SDS011;39616;48.872;9.390;2022-07-29T08:10:48;4.00;;;1.95;;
53718;SDS011;39616;48.872;9.390;2022-07-29T08:13:26;5.18;;;1.73;;
53718;SDS011;39616;48.872;9.390;2022-07-29T08:16:00;3.22;;;1.20;;
53718;SDS011;39616;48.872;9.390;2022-07-29T08:18:31;1.35;;;1.25;;
53718;SDS011;39616;48.872;9.390;2022-07-29T08:21:02;3.70;;;1.70;;
53718;SDS011;39616;48.872;9.390;2022-07-29T08:23:32;3.58;;;1.80;;
53718;SDS011;39616;48.872;9.390;2022-07-29T08:26:09;2.38;;;1.77;;
53718;SDS011;39616;48.872;9.390;2022-07-29T08:28:42;2.85;;;1.70;;
53718;SDS011;39616;48.872;9.390;2022-07-29T08:31:20;3.53;;;1.88;;
53718;SDS011;39616;48.872;9.390;2022-07-29T08:33:50;7.05;;;1.98;;
53718;SDS011;39616;48.872;9.390;2022-07-29T08:36:20;2.70;;;2.00;;
53718;SDS011;39616;48.872;9.390;2022-07-29T08:38:51;2.83;;;1.42;;
53718;SDS011;39616;48.872;9.390;2022-07-29T08:41:22;2.90;;;1.38;;
53718;SDS011;39616;48.872;9.390;2022-07-29T08:43:52;2.33;;;1.80;;
53718;SDS011;39616;48.872;9.390;2022-07-29T08:46:23;6.95;;;1.80;;
53718;SDS011;39616;48.872;9.390;2022-07-29T08:48:53;2.13;;;1.67;;
53718;SDS011;39616;48.872;9.390;2022-07-29T08:51:25;3.67;;;2.35;;
53718;SDS011;39616;48.872;9.390;2022-07-29T08:53:57;4.10;;;2.08;;
53718;SDS011;39616;48.872;9.390;2022-07-29T08:56:27;2.00;;;1.73;;
53718;SDS011;39616;48.872;9.390;2022-07-29T08:58:58;2.00;;;1.77;;
53718;SDS011;39616;48.872;9.390;2022-07-29T09:01:33;5.07;;;2.05;;
53718;SDS011;39616;48.872;9.390;2022-07-29T09:04:08;2.55;;;1.58;;
53718;SDS011;39616;48.872;9.390;2022-07-29T09:06:45;3.10;;;1.90;;
53718;SDS011;39616;48.872;9.390;2022-07-29T09:09:19;5.00;;;2.05;;
53718;SDS011;39616;48.872;9.390;2022-07-29T09:11:49;7.70;;;1.95;;
53718;SDS011;39616;48.872;9.390;2022-07-29T09:14:20;2.55;;;2.03;;
53718;SDS011;39616;48.872;9.390;2022-07-29T09:16:54;4.55;;;2.50;;
53718;SDS011;39616;48.872;9.390;2022-07-29T09:21:58;5.47;;;2.10;;
53718;SDS011;39616;48.872;9.390;2022-07-29T09:27:24;5.30;;;2.28;;
53718;SDS011;39616;48.872;9.390;2022-07-29T09:29:59;5.47;;;2.55;;
53718;SDS011;39616;48.872;9.390;2022-07-29T09:35:26;4.10;;;2.08;;
53718;SDS011;39616;48.872;9.390;2022-07-29T09:37:57;3.53;;;2.63;;
53718;SDS011;39616;48.872;9.390;2022-07-29T09:40:28;4.65;;;2.42;;
53718;SDS011;39616;48.872;9.390;2022-07-29T09:43:00;4.68;;;2.47;;
53718;SDS011;39616;48.872;9.390;2022-07-29T09:45:40;3.63;;;2.28;;
53718;SDS011;39616;48.872;9.390;2022-07-29T09:48:14;2.17;;;1.98;;
53718;SDS011;39616;48.872;9.390;2022-07-29T09:50:45;2.53;;;1.80;;
53718;SDS011;39616;48.872;9.390;2022-07-29T09:53:31;4.70;;;2.25;;
53718;SDS011;39616;48.872;9.390;2022-07-29T09:56:06;5.63;;;2.63;;
53718;SDS011;39616;48.872;9.390;2022-07-29T09:58:37;3.92;;;1.83;;
53718;SDS011;39616;48.872;9.390;2022-07-29T10:01:07;3.42;;;1.83;;
53718;SDS011;39616;48.872;9.390;2022-07-29T10:03:50;2.15;;;1.95;;
53718;SDS011;39616;48.872;9.390;2022-07-29T10:06:22;2.65;;;2.45;;
53718;SDS011;39616;48.872;9.390;2022-07-29T10:08:52;2.70;;;2.45;;
53718;SDS011;39616;48.872;9.390;2022-07-29T10:11:23;3.47;;;1.90;;
53718;SDS011;39616;48.872;9.390;2022-07-29T10:13:53;3.75;;;2.10;;
53718;SDS011;39616;48.872;9.390;2022-07-29T10:16:24;5.57;;;2.40;;
53718;SDS011;39616;48.872;9.390;2022-07-29T10:18:55;3.15;;;2.50;;
53718;SDS011;39616;48.872;9.390;2022-07-29T10:21:26;3.75;;;2.58;;
53718;SDS011;39616;48.872;9.390;2022-07-29T10:23:56;3.08;;;2.13;;
53718;SDS011;39616;48.872;9.390;2022-07-29T10:26:27;2.97;;;2.28;;
53718;SDS011;39616;48.872;9.390;2022-07-29T10:29:00;4.97;;;2.28;;
53718;SDS011;39616;48.872;9.390;2022-07-29T10:31:35;7.03;;;2.30;;
53718;SDS011;39616;48.872;9.390;2022-07-29T10:34:46;12.50;;;3.05;;
53718;SDS011;39616;48.872;9.390;2022-07-29T10:40:00;5.80;;;3.63;;
53718;SDS011;39616;48.872;9.390;2022-07-29T10:43:28;4.68;;;3.03;;
53718;SDS011;39616;48.872;9.390;2022-07-29T10:46:02;4.78;;;2.85;;
53718;SDS011;39616;48.872;9.390;2022-07-29T10:48:34;8.38;;;2.60;;
53718;SDS011;39616;48.872;9.390;2022-07-29T10:51:04;4.40;;;2.95;;
53718;SDS011;39616;48.872;9.390;2022-07-29T10:53:45;3.70;;;2.40;;
53718;SDS011;39616;48.872;9.390;2022-07-29T11:02:01;5.15;;;3.00;;
53718;SDS011;39616;48.872;9.390;2022-07-29T11:07:14;4.18;;;2.80;;
53718;SDS011;39616;48.872;9.390;2022-07-29T11:10:18;4.88;;;2.90;;
53718;SDS011;39616;48.872;9.390;2022-07-29T11:12:46;8.00;;;3.55;;
53718;SDS011;39616;48.872;9.390;2022-07-29T11:15:18;6.28;;;2.70;;
53718;SDS011;39616;48.872;9.390;2022-07-29T11:20:34;5.30;;;2.80;;
53718;SDS011;39616;48.872;9.390;2022-07-29T11:23:18;11.23;;;2.97;;
53718;SDS011;39616;48.872;9.390;2022-07-29T11:31:57;7.13;;;3.55;;
53718;SDS011;39616;48.872;9.390;2022-07-29T11:44:57;20.17;;;4.68;;
53718;SDS011;39616;48.872;9.390;2022-07-29T11:47:31;6.25;;;3.30;;
53718;SDS011;39616;48.872;9.390;2022-07-29T11:50:04;10.60;;;4.13;;
53718;SDS011;39616;48.872;9.390;2022-07-29T11:52:37;9.25;;;5.28;;
53718;SDS011;39616;48.872;9.390;2022-07-29T11:55:17;9.40;;;6.05;;
53718;SDS011;39616;48.872;9.390;2022-07-29T11:57:53;9.68;;;6.10;;
53718;SDS011;39616;48.872;9.390;2022-07-29T12:02:59;8.43;;;5.55;;
53718;SDS011;39616;48.872;9.390;2022-07-29T12:05:33;5.95;;;5.35;;
53718;SDS011;39616;48.872;9.390;2022-07-29T12:08:12;9.02;;;5.82;;
53718;SDS011;39616;48.872;9.390;2022-07-29T12:10:50;6.13;;;5.13;;
53718;SDS011;39616;48.872;9.390;2022-07-29T12:13:21;11.73;;;6.75;;
53718;SDS011;39616;48.872;9.390;2022-07-29T12:15:54;7.85;;;5.57;;
53718;SDS011;39616;48.872;9.390;2022-07-29T12:18:27;11.40;;;6.78;;
53718;SDS011;39616;48.872;9.390;2022-07-29T12:20:58;8.05;;;6.18;;
53718;SDS011;39616;48.872;9.390;2022-07-29T12:23:29;13.23;;;5.97;;
53718;SDS011;39616;48.872;9.390;2022-07-29T12:26:04;12.80;;;6.05;;
53718;SDS011;39616;48.872;9.390;2022-07-29T12:28:39;10.73;;;6.20;;
53718;SDS011;39616;48.872;9.390;2022-07-29T12:31:13;7.97;;;5.80;;
53718;SDS011;39616;48.872;9.390;2022-07-29T12:33:44;9.73;;;6.30;;
53718;SDS011;39616;48.872;9.390;2022-07-29T12:36:23;11.50;;;6.65;;
53718;SDS011;39616;48.872;9.390;2022-07-29T12:38:53;8.68;;;6.07;;
53718;SDS011;39616;48.872;9.390;2022-07-29T12:41:24;7.45;;;5.47;;
53718;SDS011;39616;48.872;9.390;2022-07-29T12:43:54;5.45;;;4.88;;
53718;SDS011;39616;48.872;9.390;2022-07-29T12:46:25;6.55;;;4.10;;
53718;SDS011;39616;48.872;9.390;2022-07-29T12:48:56;4.20;;;3.70;;
53718;SDS011;39616;48.872;9.390;2022-07-29T12:51:34;7.65;;;3.92;;
53718;SDS011;39616;48.872;9.390;2022-07-29T12:56:41;4.65;;;3.40;;
53718;SDS011;39616;48.872;9.390;2022-07-29T13:01:51;4.10;;;3.15;;
53718;SDS011;39616;48.872;9.390;2022-07-29T13:04:29;5.22;;;2.92;;
53718;SDS011;39616;48.872;9.390;2022-07-29T13:07:02;3.53;;;3.00;;
53718;SDS011;39616;48.872;9.390;2022-07-29T13:09:36;3.47;;;2.20;;
53718;SDS011;39616;48.872;9.390;2022-07-29T13:12:09;4.53;;;1.98;;
53718;SDS011;39616;48.872;9.390;2022-07-29T13:14:47;3.70;;;1.63;;
53718;SDS011;39616;48.872;9.390;2022-07-29T13:17:21;2.55;;;1.55;;
53718;SDS011;39616;48.872;9.390;2022-07-29T13:20:07;2.10;;;1.50;;
53718;SDS011;39616;48.872;9.390;2022-07-29T13:22:42;1.98;;;1.83;;
53718;SDS011;39616;48.872;9.390;2022-07-29T13:25:12;1.67;;;1.58;;
53718;SDS011;39616;48.872;9.390;2022-07-29T13:27:43;2.22;;;1.10;;
53718;SDS011;39616;48.872;9.390;2022-07-29T13:30:15;1.45;;;1.10;;
53718;SDS011;39616;48.872;9.390;2022-07-29T13:32:46;2.47;;;1.20;;
53718;SDS011;39616;48.872;9.390;2022-07-29T13:35:16;2.60;;;1.30;;
53718;SDS011;39616;48.872;9.390;2022-07-29T13:37:48;2.58;;;1.10;;
53718;SDS011;39616;48.872;9.390;2022-07-29T13:40:18;2.13;;;1.10;;
53718;SDS011;39616;48.872;9.390;2022-07-29T13:42:48;2.10;;;0.90;;
53718;SDS011;39616;48.872;9.390;2022-07-29T13:45:19;1.00;;;1.00;;
53718;SDS011;39616;48.872;9.390;2022-07-29T13:47:49;1.98;;;1.20;;
53718;SDS011;39616;48.872;9.390;2022-07-29T13:50:19;3.05;;;1.30;;
53718;SDS011;39616;48.872;9.390;2022-07-29T13:52:50;1.95;;;1.40;;
53718;SDS011;39616;48.872;9.390;2022-07-29T13:55:21;6.22;;;1.73;;
53718;SDS011;39616;48.872;9.390;2022-07-29T13:57:51;2.58;;;1.50;;
53718;SDS011;39616;48.872;9.390;2022-07-29T14:00:21;3.28;;;1.77;;
53718;SDS011;39616;48.872;9.390;2022-07-29T14:02:53;2.90;;;1.85;;
53718;SDS011;39616;48.872;9.390;2022-07-29T14:05:23;2.45;;;2.25;;
53718;SDS011;39616;48.872;9.390;2022-07-29T14:07:54;5.82;;;2.42;;
53718;SDS011;39616;48.872;9.390;2022-07-29T14:10:24;6.93;;;2.60;;
53718;SDS011;39616;48.872;9.390;2022-07-29T14:12:56;3.78;;;1.95;;
53718;SDS011;39616;48.872;9.390;2022-07-29T14:15:26;4.32;;;2.03;;
53718;SDS011;39616;48.872;9.390;2022-07-29T14:17:56;3.80;;;2.63;;
53718;SDS011;39616;48.872;9.390;2022-07-29T14:20:27;2.85;;;2.30;;
53718;SDS011;39616;48.872;9.390;2022-07-29T14:22:59;5.57;;;2.10;;
53718;SDS011;39616;48.872;9.390;2022-07-29T14:25:29;4.88;;;2.83;;
53718;SDS011;39616;48.872;9.390;2022-07-29T14:28:00;3.55;;;3.03;;
53718;SDS011;39616;48.872;9.390;2022-07-29T14:30:30;4.18;;;2.90;;
53718;SDS011;39616;48.872;9.390;2022-07-29T14:33:01;2.58;;;2.38;;
53718;SDS011;39616;48.872;9.390;2022-07-29T14:35:31;3.20;;;2.90;;
53718;SDS011;39616;48.872;9.390;2022-07-29T14:38:02;5.20;;;3.00;;
53718;SDS011;39616;48.872;9.390;2022-07-29T14:40:33;5.68;;;3.10;;
53718;SDS011;39616;48.872;9.390;2022-07-29T14:43:03;6.68;;;3.33;;
53718;SDS011;39616;48.872;9.390;2022-07-29T14:45:34;3.15;;;2.88;;
53718;SDS011;39616;48.872;9.390;2022-07-29T14:48:04;3.67;;;3.10;;
53718;SDS011;39616;48.872;9.390;2022-07-29T14:50:35;4.32;;;2.67;;
53718;SDS011;39616;48.872;9.390;2022-07-29T14:53:05;3.20;;;2.90;;
53718;SDS011;39616;48.872;9.390;2022-07-29T14:55:35;3.58;;;2.75;;
53718;SDS011;39616;48.872;9.390;2022-07-29T14:58:06;3.65;;;3.10;;
53718;SDS011;39616;48.872;9.390;2022-07-29T15:00:38;7.07;;;3.50;;
53718;SDS011;39616;48.872;9.390;2022-07-29T15:03:09;4.65;;;3.30;;
53718;SDS011;39616;48.872;9.390;2022-07-29T15:05:40;5.57;;;3.60;;
53718;SDS011;39616;48.872;9.390;2022-07-29T15:08:10;6.25;;;3.25;;
53718;SDS011;39616;48.872;9.390;2022-07-29T15:10:41;5.53;;;2.55;;
53718;SDS011;39616;48.872;9.390;2022-07-29T15:13:11;3.10;;;2.70;;
53718;SDS011;39616;48.872;9.390;2022-07-29T15:15:41;4.82;;;3.17;;
53718;SDS011;39616;48.872;9.390;2022-07-29T15:18:12;3.22;;;2.92;;
53718;SDS011;39616;48.872;9.390;2022-07-29T15:20:42;3.30;;;2.70;;
53718;SDS011;39616;48.872;9.390;2022-07-29T15:23:14;3.72;;;2.80;;
53718;SDS011;39616;48.872;9.390;2022-07-29T15:25:45;3.83;;;2.90;;
53718;SDS011;39616;48.872;9.390;2022-07-29T15:28:16;3.78;;;2.90;;
53718;SDS011;39616;48.872;9.390;2022-07-29T15:30:46;4.38;;;3.22;;
53718;SDS011;39616;48.872;9.390;2022-07-29T15:33:17;5.38;;;2.95;;
53718;SDS011;39616;48.872;9.390;2022-07-29T15:35:47;3.65;;;2.90;;
53718;SDS011;39616;48.872;9.390;2022-07-29T15:38:18;3.55;;;2.92;;
53718;SDS011;39616;48.872;9.390;2022-07-29T15:40:48;4.13;;;3.33;;
53718;SDS011;39616;48.872;9.390;2022-07-29T15:43:18;2.72;;;2.53;;
53718;SDS011;39616;48.872;9.390;2022-07-29T15:45:49;2.80;;;2.60;;
53718;SDS011;39616;48.872;9.390;2022-07-29T15:48:38;10.48;;;3.03;;
53718;SDS011;39616;48.872;9.390;2022-07-29T15:51:08;6.28;;;3.10;;
53718;SDS011;39616;48.872;9.390;2022-07-29T15:53:39;4.07;;;3.20;;
53718;SDS011;39616;48.872;9.390;2022-07-29T15:56:09;3.38;;;3.10;;
53718;SDS011;39616;48.872;9.390;2022-07-29T15:58:39;2.78;;;2.58;;
53718;SDS011;39616;48.872;9.390;2022-07-29T16:01:10;6.95;;;2.90;;
53718;SDS011;39616;48.872;9.390;2022-07-29T16:03:40;2.65;;;2.42;;
53718;SDS011;39616;48.872;9.390;2022-07-29T16:06:11;3.30;;;2.50;;
53718;SDS011;39616;48.872;9.390;2022-07-29T16:08:41;3.78;;;2.47;;
53718;SDS011;39616;48.872;9.390;2022-07-29T16:11:12;3.08;;;2.22;;
53718;SDS011;39616;48.872;9.390;2022-07-29T16:13:42;4.93;;;2.25;;
53718;SDS011;39616;48.872;9.390;2022-07-29T16:16:12;5.15;;;2.35;;
53718;SDS011;39616;48.872;9.390;2022-07-29T16:18:44;2.88;;;2.25;;
53718;SDS011;39616;48.872;9.390;2022-07-29T16:21:14;2.70;;;2.30;;
53718;SDS011;39616;48.872;9.390;2022-07-29T16:23:45;5.28;;;2.63;;